sensor_id;sensor_type;location;lat;lon;timestamp;P1;durP1;ratioP1;P2;durP2;ratioP2
71172;SDS011;58875;51.996;4.504;2024-02-26T00:01:51;6.97;;;6.97;;
71172;SDS011;58875;51.996;4.504;2024-02-26T00:04:17;6.90;;;6.90;;
71172;SDS011;58875;51.996;4.504;2024-02-26T00:06:43;7.08;;;7.08;;
71172;SDS011;58875;51.996;4.504;2024-02-26T00:09:09;7.55;;;7.55;;
71172;SDS011;58875;51.996;4.504;2024-02-26T00:11:36;6.79;;;6.79;;
71172;SDS011;58875;51.996;4.504;2024-02-26T00:14:02;6.91;;;6.90;;
71172;SDS011;58875;51.996;4.504;2024-02-26T00:16:28;6.72;;;6.72;;
71172;SDS011;58875;51.996;4.504;2024-02-26T00:18:54;6.61;;;6.61;;
71172;SDS011;58875;51.996;4.504;2024-02-26T00:21:20;6.77;;;6.77;;
71172;SDS011;58875;51.996;4.504;2024-02-26T00:23:46;6.69;;;6.69;;
71172;SDS011;58875;51.996;4.504;2024-02-26T00:26:11;6.74;;;6.74;;
71172;SDS011;58875;51.996;4.504;2024-02-26T00:28:37;6.40;;;6.40;;
71172;SDS011;58875;51.996;4.504;2024-02-26T00:31:03;7.05;;;7.05;;
71172;SDS011;58875;51.996;4.504;2024-02-26T00:33:29;6.70;;;6.70;;
71172;SDS011;58875;51.996;4.504;2024-02-26T00:35:54;6.86;;;6.86;;
71172;SDS011;58875;51.996;4.504;2024-02-26T00:38:20;6.61;;;6.61;;
71172;SDS011;58875;51.996;4.504;2024-02-26T00:40:45;6.80;;;6.80;;
71172;SDS011;58875;51.996;4.504;2024-02-26T00:43:12;6.97;;;6.93;;
71172;SDS011;58875;51.996;4.504;2024-02-26T00:45:37;6.57;;;6.57;;
71172;SDS011;58875;51.996;4.504;2024-02-26T00:48:03;6.51;;;6.51;;
71172;SDS011;58875;51.996;4.504;2024-02-26T00:50:32;6.59;;;6.59;;
71172;SDS011;58875;51.996;4.504;2024-02-26T00:52:59;6.98;;;6.98;;
71172;SDS011;58875;51.996;4.504;2024-02-26T00:55:25;6.39;;;6.39;;
71172;SDS011;58875;51.996;4.504;2024-02-26T00:57:50;6.79;;;6.79;;
71172;SDS011;58875;51.996;4.504;2024-02-26T01:00:16;6.57;;;6.57;;
71172;SDS011;58875;51.996;4.504;2024-02-26T01:02:42;6.96;;;6.96;;
71172;SDS011;58875;51.996;4.504;2024-02-26T01:05:08;6.63;;;6.63;;
71172;SDS011;58875;51.996;4.504;2024-02-26T01:07:37;6.54;;;6.54;;
71172;SDS011;58875;51.996;4.504;2024-02-26T01:10:03;7.13;;;7.13;;
71172;SDS011;58875;51.996;4.504;2024-02-26T01:12:30;6.89;;;6.89;;
71172;SDS011;58875;51.996;4.504;2024-02-26T01:14:56;7.10;;;7.06;;
71172;SDS011;58875;51.996;4.504;2024-02-26T01:17:22;7.03;;;7.03;;
71172;SDS011;58875;51.996;4.504;2024-02-26T01:19:47;7.07;;;7.07;;
71172;SDS011;58875;51.996;4.504;2024-02-26T01:22:13;7.17;;;7.17;;
71172;SDS011;58875;51.996;4.504;2024-02-26T01:24:38;7.01;;;7.01;;
71172;SDS011;58875;51.996;4.504;2024-02-26T01:27:04;7.06;;;7.06;;
71172;SDS011;58875;51.996;4.504;2024-02-26T01:29:29;7.33;;;7.33;;
71172;SDS011;58875;51.996;4.504;2024-02-26T01:31:55;7.25;;;7.25;;
71172;SDS011;58875;51.996;4.504;2024-02-26T01:34:21;7.21;;;7.21;;
71172;SDS011;58875;51.996;4.504;2024-02-26T01:36:47;7.34;;;7.34;;
71172;SDS011;58875;51.996;4.504;2024-02-26T01:39:12;7.35;;;7.35;;
71172;SDS011;58875;51.996;4.504;2024-02-26T01:41:41;7.30;;;7.30;;
71172;SDS011;58875;51.996;4.504;2024-02-26T01:44:07;7.82;;;7.80;;
71172;SDS011;58875;51.996;4.504;2024-02-26T01:46:33;7.74;;;7.74;;
71172;SDS011;58875;51.996;4.504;2024-02-26T01:49:00;8.17;;;8.17;;
71172;SDS011;58875;51.996;4.504;2024-02-26T01:51:28;8.18;;;8.18;;
71172;SDS011;58875;51.996;4.504;2024-02-26T01:53:57;8.12;;;8.12;;
71172;SDS011;58875;51.996;4.504;2024-02-26T01:56:25;8.26;;;8.15;;
71172;SDS011;58875;51.996;4.504;2024-02-26T01:58:55;8.29;;;8.29;;
71172;SDS011;58875;51.996;4.504;2024-02-26T02:01:22;8.56;;;8.56;;
71172;SDS011;58875;51.996;4.504;2024-02-26T02:03:52;8.63;;;8.63;;
71172;SDS011;58875;51.996;4.504;2024-02-26T02:06:18;8.92;;;8.92;;
71172;SDS011;58875;51.996;4.504;2024-02-26T02:08:44;8.73;;;8.73;;
71172;SDS011;58875;51.996;4.504;2024-02-26T02:11:10;8.77;;;8.77;;
71172;SDS011;58875;51.996;4.504;2024-02-26T02:13:37;8.53;;;8.53;;
71172;SDS011;58875;51.996;4.504;2024-02-26T02:16:03;8.38;;;8.30;;
71172;SDS011;58875;51.996;4.504;2024-02-26T02:18:29;8.78;;;8.63;;
71172;SDS011;58875;51.996;4.504;2024-02-26T02:20:55;8.75;;;8.73;;
71172;SDS011;58875;51.996;4.504;2024-02-26T02:23:24;8.42;;;8.42;;
71172;SDS011;58875;51.996;4.504;2024-02-26T02:25:50;8.60;;;8.60;;
71172;SDS011;58875;51.996;4.504;2024-02-26T02:28:15;8.48;;;8.48;;
71172;SDS011;58875;51.996;4.504;2024-02-26T02:30:41;9.19;;;9.16;;
71172;SDS011;58875;51.996;4.504;2024-02-26T02:33:07;8.97;;;8.90;;
71172;SDS011;58875;51.996;4.504;2024-02-26T02:35:32;9.03;;;9.03;;
71172;SDS011;58875;51.996;4.504;2024-02-26T02:37:58;9.21;;;9.13;;
71172;SDS011;58875;51.996;4.504;2024-02-26T02:40:23;9.65;;;9.58;;
71172;SDS011;58875;51.996;4.504;2024-02-26T02:42:49;9.19;;;9.19;;
71172;SDS011;58875;51.996;4.504;2024-02-26T02:45:14;9.54;;;9.51;;
71172;SDS011;58875;51.996;4.504;2024-02-26T02:47:40;9.89;;;9.78;;
71172;SDS011;58875;51.996;4.504;2024-02-26T02:50:06;9.44;;;9.39;;
71172;SDS011;58875;51.996;4.504;2024-02-26T02:52:31;9.98;;;9.94;;
71172;SDS011;58875;51.996;4.504;2024-02-26T02:54:57;9.75;;;9.71;;
71172;SDS011;58875;51.996;4.504;2024-02-26T02:57:23;9.82;;;9.82;;
71172;SDS011;58875;51.996;4.504;2024-02-26T02:59:49;9.69;;;9.66;;
71172;SDS011;58875;51.996;4.504;2024-02-26T03:02:14;10.71;;;10.41;;
71172;SDS011;58875;51.996;4.504;2024-02-26T03:04:40;10.01;;;9.88;;
71172;SDS011;58875;51.996;4.504;2024-02-26T03:07:05;10.25;;;10.17;;
71172;SDS011;58875;51.996;4.504;2024-02-26T03:09:31;10.10;;;10.10;;
71172;SDS011;58875;51.996;4.504;2024-02-26T03:11:57;10.09;;;10.03;;
71172;SDS011;58875;51.996;4.504;2024-02-26T03:14:23;9.74;;;9.74;;
71172;SDS011;58875;51.996;4.504;2024-02-26T03:16:48;9.98;;;9.97;;
71172;SDS011;58875;51.996;4.504;2024-02-26T03:19:14;10.29;;;10.15;;
71172;SDS011;58875;51.996;4.504;2024-02-26T03:21:41;10.07;;;10.00;;
71172;SDS011;58875;51.996;4.504;2024-02-26T03:24:07;9.91;;;9.84;;
71172;SDS011;58875;51.996;4.504;2024-02-26T03:26:35;10.29;;;10.13;;
71172;SDS011;58875;51.996;4.504;2024-02-26T03:29:01;10.20;;;10.11;;
71172;SDS011;58875;51.996;4.504;2024-02-26T03:31:28;10.11;;;10.03;;
71172;SDS011;58875;51.996;4.504;2024-02-26T03:33:54;10.18;;;10.09;;
71172;SDS011;58875;51.996;4.504;2024-02-26T03:36:19;9.96;;;9.90;;
71172;SDS011;58875;51.996;4.504;2024-02-26T03:38:46;10.34;;;10.32;;
71172;SDS011;58875;51.996;4.504;2024-02-26T03:41:13;10.12;;;10.09;;
71172;SDS011;58875;51.996;4.504;2024-02-26T03:43:38;9.99;;;9.86;;
71172;SDS011;58875;51.996;4.504;2024-02-26T03:46:06;10.14;;;10.08;;
71172;SDS011;58875;51.996;4.504;2024-02-26T03:48:33;10.25;;;10.23;;
71172;SDS011;58875;51.996;4.504;2024-02-26T03:50:59;10.68;;;10.60;;
71172;SDS011;58875;51.996;4.504;2024-02-26T03:53:25;9.87;;;9.81;;
71172;SDS011;58875;51.996;4.504;2024-02-26T03:55:51;9.86;;;9.82;;
71172;SDS011;58875;51.996;4.504;2024-02-26T03:58:17;10.31;;;10.31;;
71172;SDS011;58875;51.996;4.504;2024-02-26T04:00:43;10.14;;;10.12;;
71172;SDS011;58875;51.996;4.504;2024-02-26T04:03:09;10.24;;;10.16;;
71172;SDS011;58875;51.996;4.504;2024-02-26T04:05:35;10.19;;;10.00;;
71172;SDS011;58875;51.996;4.504;2024-02-26T04:08:01;10.37;;;10.15;;
71172;SDS011;58875;51.996;4.504;2024-02-26T04:10:26;10.08;;;9.91;;
71172;SDS011;58875;51.996;4.504;2024-02-26T04:12:52;11.21;;;11.00;;
71172;SDS011;58875;51.996;4.504;2024-02-26T04:15:17;10.78;;;10.59;;
71172;SDS011;58875;51.996;4.504;2024-02-26T04:17:43;10.33;;;10.33;;
71172;SDS011;58875;51.996;4.504;2024-02-26T04:20:13;10.94;;;10.81;;
71172;SDS011;58875;51.996;4.504;2024-02-26T04:22:41;11.14;;;11.01;;
71172;SDS011;58875;51.996;4.504;2024-02-26T04:25:06;11.52;;;11.41;;
71172;SDS011;58875;51.996;4.504;2024-02-26T04:27:32;11.40;;;11.26;;
71172;SDS011;58875;51.996;4.504;2024-02-26T04:29:58;11.19;;;11.12;;
71172;SDS011;58875;51.996;4.504;2024-02-26T04:32:23;11.79;;;11.64;;
71172;SDS011;58875;51.996;4.504;2024-02-26T04:34:49;11.66;;;11.44;;
71172;SDS011;58875;51.996;4.504;2024-02-26T04:37:14;12.20;;;12.04;;
71172;SDS011;58875;51.996;4.504;2024-02-26T04:39:40;11.73;;;11.62;;
71172;SDS011;58875;51.996;4.504;2024-02-26T04:42:05;12.15;;;11.94;;
71172;SDS011;58875;51.996;4.504;2024-02-26T04:44:31;11.84;;;11.68;;
71172;SDS011;58875;51.996;4.504;2024-02-26T04:46:56;12.15;;;12.09;;
71172;SDS011;58875;51.996;4.504;2024-02-26T04:49:22;12.36;;;12.20;;
71172;SDS011;58875;51.996;4.504;2024-02-26T04:51:47;12.22;;;12.15;;
71172;SDS011;58875;51.996;4.504;2024-02-26T04:54:13;12.60;;;12.42;;
71172;SDS011;58875;51.996;4.504;2024-02-26T04:56:39;12.14;;;12.05;;
71172;SDS011;58875;51.996;4.504;2024-02-26T04:59:04;12.68;;;12.47;;
71172;SDS011;58875;51.996;4.504;2024-02-26T05:01:30;11.93;;;11.88;;
71172;SDS011;58875;51.996;4.504;2024-02-26T05:03:55;11.91;;;11.76;;
71172;SDS011;58875;51.996;4.504;2024-02-26T05:06:20;11.99;;;11.85;;
71172;SDS011;58875;51.996;4.504;2024-02-26T05:08:46;12.31;;;12.17;;
71172;SDS011;58875;51.996;4.504;2024-02-26T05:11:12;12.48;;;12.34;;
71172;SDS011;58875;51.996;4.504;2024-02-26T05:13:37;12.11;;;12.01;;
71172;SDS011;58875;51.996;4.504;2024-02-26T05:16:03;11.86;;;11.66;;
71172;SDS011;58875;51.996;4.504;2024-02-26T05:18:28;12.12;;;11.88;;
71172;SDS011;58875;51.996;4.504;2024-02-26T05:20:54;11.86;;;11.73;;
71172;SDS011;58875;51.996;4.504;2024-02-26T05:23:19;12.64;;;12.38;;
71172;SDS011;58875;51.996;4.504;2024-02-26T05:25:45;12.17;;;11.93;;
71172;SDS011;58875;51.996;4.504;2024-02-26T05:28:13;12.53;;;12.34;;
71172;SDS011;58875;51.996;4.504;2024-02-26T05:30:40;12.54;;;12.35;;
71172;SDS011;58875;51.996;4.504;2024-02-26T05:33:07;12.50;;;12.31;;
71172;SDS011;58875;51.996;4.504;2024-02-26T05:35:32;12.68;;;12.47;;
71172;SDS011;58875;51.996;4.504;2024-02-26T05:37:58;13.17;;;12.86;;
71172;SDS011;58875;51.996;4.504;2024-02-26T05:40:23;12.85;;;12.68;;
71172;SDS011;58875;51.996;4.504;2024-02-26T05:42:49;12.51;;;12.27;;
71172;SDS011;58875;51.996;4.504;2024-02-26T05:45:14;12.85;;;12.65;;
71172;SDS011;58875;51.996;4.504;2024-02-26T05:47:40;12.84;;;12.58;;
71172;SDS011;58875;51.996;4.504;2024-02-26T05:50:10;12.77;;;12.46;;
71172;SDS011;58875;51.996;4.504;2024-02-26T05:52:37;12.82;;;12.52;;
71172;SDS011;58875;51.996;4.504;2024-02-26T05:55:06;12.82;;;12.54;;
71172;SDS011;58875;51.996;4.504;2024-02-26T05:57:33;12.89;;;12.61;;
71172;SDS011;58875;51.996;4.504;2024-02-26T06:00:00;12.87;;;12.63;;
71172;SDS011;58875;51.996;4.504;2024-02-26T06:02:31;13.12;;;12.79;;
71172;SDS011;58875;51.996;4.504;2024-02-26T06:04:57;13.13;;;12.76;;
71172;SDS011;58875;51.996;4.504;2024-02-26T06:07:23;13.05;;;12.68;;
71172;SDS011;58875;51.996;4.504;2024-02-26T06:09:49;13.86;;;13.37;;
71172;SDS011;58875;51.996;4.504;2024-02-26T06:12:15;13.38;;;13.16;;
71172;SDS011;58875;51.996;4.504;2024-02-26T06:14:44;13.60;;;13.24;;
71172;SDS011;58875;51.996;4.504;2024-02-26T06:17:09;13.32;;;13.05;;
71172;SDS011;58875;51.996;4.504;2024-02-26T06:19:35;13.59;;;13.24;;
71172;SDS011;58875;51.996;4.504;2024-02-26T06:22:00;14.32;;;13.87;;
71172;SDS011;58875;51.996;4.504;2024-02-26T06:24:26;14.18;;;13.75;;
71172;SDS011;58875;51.996;4.504;2024-02-26T06:26:51;14.88;;;14.28;;
71172;SDS011;58875;51.996;4.504;2024-02-26T06:29:17;14.76;;;14.11;;
71172;SDS011;58875;51.996;4.504;2024-02-26T06:31:42;15.67;;;14.96;;
71172;SDS011;58875;51.996;4.504;2024-02-26T06:34:08;16.31;;;15.49;;
71172;SDS011;58875;51.996;4.504;2024-02-26T06:36:34;16.69;;;15.67;;
71172;SDS011;58875;51.996;4.504;2024-02-26T06:39:00;16.97;;;16.39;;
71172;SDS011;58875;51.996;4.504;2024-02-26T06:41:25;16.81;;;16.21;;
71172;SDS011;58875;51.996;4.504;2024-02-26T06:43:56;16.71;;;16.27;;
71172;SDS011;58875;51.996;4.504;2024-02-26T06:46:22;17.38;;;16.56;;
71172;SDS011;58875;51.996;4.504;2024-02-26T06:48:48;18.77;;;17.71;;
71172;SDS011;58875;51.996;4.504;2024-02-26T06:51:14;18.50;;;17.41;;
71172;SDS011;58875;51.996;4.504;2024-02-26T06:53:40;18.14;;;17.53;;
71172;SDS011;58875;51.996;4.504;2024-02-26T06:56:05;18.57;;;17.92;;
71172;SDS011;58875;51.996;4.504;2024-02-26T06:58:31;19.52;;;18.55;;
71172;SDS011;58875;51.996;4.504;2024-02-26T07:00:57;19.43;;;18.53;;
71172;SDS011;58875;51.996;4.504;2024-02-26T07:03:22;18.77;;;18.24;;
71172;SDS011;58875;51.996;4.504;2024-02-26T07:05:49;19.73;;;19.14;;
71172;SDS011;58875;51.996;4.504;2024-02-26T07:08:15;19.05;;;18.31;;
71172;SDS011;58875;51.996;4.504;2024-02-26T07:10:41;19.74;;;18.84;;
71172;SDS011;58875;51.996;4.504;2024-02-26T07:13:06;18.90;;;18.47;;
71172;SDS011;58875;51.996;4.504;2024-02-26T07:15:32;20.39;;;19.57;;
71172;SDS011;58875;51.996;4.504;2024-02-26T07:17:58;20.59;;;19.45;;
71172;SDS011;58875;51.996;4.504;2024-02-26T07:20:28;21.12;;;20.26;;
71172;SDS011;58875;51.996;4.504;2024-02-26T07:22:56;20.74;;;20.14;;
71172;SDS011;58875;51.996;4.504;2024-02-26T07:25:22;20.76;;;20.21;;
71172;SDS011;58875;51.996;4.504;2024-02-26T07:27:52;21.32;;;20.56;;
71172;SDS011;58875;51.996;4.504;2024-02-26T07:30:18;21.26;;;20.57;;
71172;SDS011;58875;51.996;4.504;2024-02-26T07:32:43;21.80;;;21.17;;
71172;SDS011;58875;51.996;4.504;2024-02-26T07:35:09;20.81;;;20.40;;
71172;SDS011;58875;51.996;4.504;2024-02-26T07:37:35;21.16;;;20.70;;
71172;SDS011;58875;51.996;4.504;2024-02-26T07:40:01;21.47;;;20.94;;
71172;SDS011;58875;51.996;4.504;2024-02-26T07:42:26;21.68;;;20.99;;
71172;SDS011;58875;51.996;4.504;2024-02-26T07:44:52;20.46;;;20.03;;
71172;SDS011;58875;51.996;4.504;2024-02-26T07:47:18;20.51;;;20.11;;
71172;SDS011;58875;51.996;4.504;2024-02-26T07:49:44;21.34;;;20.47;;
71172;SDS011;58875;51.996;4.504;2024-02-26T07:52:10;19.85;;;19.13;;
71172;SDS011;58875;51.996;4.504;2024-02-26T07:54:36;18.36;;;18.01;;
71172;SDS011;58875;51.996;4.504;2024-02-26T07:57:01;18.27;;;17.82;;
71172;SDS011;58875;51.996;4.504;2024-02-26T07:59:30;18.57;;;18.16;;
71172;SDS011;58875;51.996;4.504;2024-02-26T08:01:56;17.22;;;17.02;;
71172;SDS011;58875;51.996;4.504;2024-02-26T08:04:22;16.86;;;16.52;;
71172;SDS011;58875;51.996;4.504;2024-02-26T08:06:48;16.83;;;16.61;;
71172;SDS011;58875;51.996;4.504;2024-02-26T08:09:13;16.14;;;15.84;;
71172;SDS011;58875;51.996;4.504;2024-02-26T08:11:39;16.35;;;16.08;;
71172;SDS011;58875;51.996;4.504;2024-02-26T08:14:04;15.65;;;15.46;;
71172;SDS011;58875;51.996;4.504;2024-02-26T08:16:30;15.79;;;15.43;;
71172;SDS011;58875;51.996;4.504;2024-02-26T08:18:56;15.78;;;15.46;;
71172;SDS011;58875;51.996;4.504;2024-02-26T08:21:21;15.45;;;15.13;;
71172;SDS011;58875;51.996;4.504;2024-02-26T08:23:47;14.20;;;14.02;;
71172;SDS011;58875;51.996;4.504;2024-02-26T08:26:13;14.41;;;14.24;;
71172;SDS011;58875;51.996;4.504;2024-02-26T08:28:38;13.93;;;13.75;;
71172;SDS011;58875;51.996;4.504;2024-02-26T08:31:04;14.00;;;13.81;;
71172;SDS011;58875;51.996;4.504;2024-02-26T08:33:30;13.72;;;13.55;;
71172;SDS011;58875;51.996;4.504;2024-02-26T08:35:56;13.16;;;13.16;;
71172;SDS011;58875;51.996;4.504;2024-02-26T08:38:21;13.05;;;13.00;;
71172;SDS011;58875;51.996;4.504;2024-02-26T08:40:48;11.99;;;11.97;;
71172;SDS011;58875;51.996;4.504;2024-02-26T08:43:14;11.83;;;11.82;;
71172;SDS011;58875;51.996;4.504;2024-02-26T08:45:40;11.31;;;11.17;;
71172;SDS011;58875;51.996;4.504;2024-02-26T08:48:06;10.91;;;10.91;;
71172;SDS011;58875;51.996;4.504;2024-02-26T08:50:32;10.78;;;10.69;;
71172;SDS011;58875;51.996;4.504;2024-02-26T08:52:58;10.38;;;10.32;;
71172;SDS011;58875;51.996;4.504;2024-02-26T08:55:26;10.21;;;10.14;;
71172;SDS011;58875;51.996;4.504;2024-02-26T08:57:51;9.90;;;9.77;;
71172;SDS011;58875;51.996;4.504;2024-02-26T09:00:17;9.28;;;9.25;;
71172;SDS011;58875;51.996;4.504;2024-02-26T09:02:45;9.29;;;9.22;;
71172;SDS011;58875;51.996;4.504;2024-02-26T09:05:12;8.93;;;8.93;;
71172;SDS011;58875;51.996;4.504;2024-02-26T09:07:37;9.45;;;9.27;;
71172;SDS011;58875;51.996;4.504;2024-02-26T09:10:03;9.03;;;8.96;;
71172;SDS011;58875;51.996;4.504;2024-02-26T09:12:30;8.83;;;8.81;;
71172;SDS011;58875;51.996;4.504;2024-02-26T09:14:55;8.54;;;8.53;;
71172;SDS011;58875;51.996;4.504;2024-02-26T09:17:22;8.70;;;8.64;;
71172;SDS011;58875;51.996;4.504;2024-02-26T09:19:48;8.58;;;8.47;;
71172;SDS011;58875;51.996;4.504;2024-02-26T09:22:14;8.54;;;8.36;;
71172;SDS011;58875;51.996;4.504;2024-02-26T09:24:39;7.88;;;7.78;;
71172;SDS011;58875;51.996;4.504;2024-02-26T09:27:05;7.73;;;7.70;;
71172;SDS011;58875;51.996;4.504;2024-02-26T09:29:30;7.63;;;7.63;;
71172;SDS011;58875;51.996;4.504;2024-02-26T09:31:56;7.51;;;7.51;;
71172;SDS011;58875;51.996;4.504;2024-02-26T09:34:21;7.51;;;7.49;;
71172;SDS011;58875;51.996;4.504;2024-02-26T09:36:47;7.63;;;7.53;;
71172;SDS011;58875;51.996;4.504;2024-02-26T09:39:12;7.63;;;7.54;;
71172;SDS011;58875;51.996;4.504;2024-02-26T09:41:39;7.48;;;7.47;;
71172;SDS011;58875;51.996;4.504;2024-02-26T09:44:05;7.50;;;7.49;;
71172;SDS011;58875;51.996;4.504;2024-02-26T09:46:31;7.16;;;7.12;;
71172;SDS011;58875;51.996;4.504;2024-02-26T09:48:57;7.26;;;7.17;;
71172;SDS011;58875;51.996;4.504;2024-02-26T09:51:23;7.22;;;7.12;;
71172;SDS011;58875;51.996;4.504;2024-02-26T09:53:53;7.31;;;7.30;;
71172;SDS011;58875;51.996;4.504;2024-02-26T09:56:20;7.20;;;7.15;;
71172;SDS011;58875;51.996;4.504;2024-02-26T09:58:46;7.96;;;7.83;;
71172;SDS011;58875;51.996;4.504;2024-02-26T10:01:18;7.69;;;7.61;;
71172;SDS011;58875;51.996;4.504;2024-02-26T10:03:48;7.61;;;7.51;;
71172;SDS011;58875;51.996;4.504;2024-02-26T10:06:20;7.70;;;7.58;;
71172;SDS011;58875;51.996;4.504;2024-02-26T10:08:46;7.93;;;7.81;;
71172;SDS011;58875;51.996;4.504;2024-02-26T10:11:12;7.61;;;7.59;;
71172;SDS011;58875;51.996;4.504;2024-02-26T10:13:39;7.40;;;7.34;;
71172;SDS011;58875;51.996;4.504;2024-02-26T10:16:06;7.62;;;7.57;;
71172;SDS011;58875;51.996;4.504;2024-02-26T10:18:45;7.93;;;7.81;;
71172;SDS011;58875;51.996;4.504;2024-02-26T10:21:12;8.29;;;8.12;;
71172;SDS011;58875;51.996;4.504;2024-02-26T10:23:39;7.70;;;7.67;;
71172;SDS011;58875;51.996;4.504;2024-02-26T10:26:04;7.58;;;7.52;;
71172;SDS011;58875;51.996;4.504;2024-02-26T10:28:30;7.84;;;7.81;;
71172;SDS011;58875;51.996;4.504;2024-02-26T10:30:58;7.74;;;7.62;;
71172;SDS011;58875;51.996;4.504;2024-02-26T10:33:24;7.55;;;7.47;;
71172;SDS011;58875;51.996;4.504;2024-02-26T10:35:50;7.82;;;7.73;;
71172;SDS011;58875;51.996;4.504;2024-02-26T10:38:15;8.09;;;8.02;;
71172;SDS011;58875;51.996;4.504;2024-02-26T10:40:45;8.14;;;8.14;;
71172;SDS011;58875;51.996;4.504;2024-02-26T10:43:11;7.61;;;7.60;;
71172;SDS011;58875;51.996;4.504;2024-02-26T10:45:38;8.20;;;8.18;;
71172;SDS011;58875;51.996;4.504;2024-02-26T10:48:09;8.24;;;8.13;;
71172;SDS011;58875;51.996;4.504;2024-02-26T10:50:36;8.49;;;8.48;;
71172;SDS011;58875;51.996;4.504;2024-02-26T10:53:02;8.59;;;8.58;;
71172;SDS011;58875;51.996;4.504;2024-02-26T10:55:36;8.39;;;8.36;;
71172;SDS011;58875;51.996;4.504;2024-02-26T10:58:04;8.19;;;8.15;;
71172;SDS011;58875;51.996;4.504;2024-02-26T11:00:34;8.15;;;8.10;;
71172;SDS011;58875;51.996;4.504;2024-02-26T11:03:02;8.03;;;8.03;;
71172;SDS011;58875;51.996;4.504;2024-02-26T11:05:31;8.07;;;8.04;;
71172;SDS011;58875;51.996;4.504;2024-02-26T11:07:59;8.09;;;7.97;;
71172;SDS011;58875;51.996;4.504;2024-02-26T11:10:26;8.21;;;8.17;;
71172;SDS011;58875;51.996;4.504;2024-02-26T11:12:55;7.82;;;7.82;;
71172;SDS011;58875;51.996;4.504;2024-02-26T11:15:26;7.80;;;7.79;;
71172;SDS011;58875;51.996;4.504;2024-02-26T11:17:54;7.56;;;7.55;;
71172;SDS011;58875;51.996;4.504;2024-02-26T11:20:22;7.35;;;7.35;;
71172;SDS011;58875;51.996;4.504;2024-02-26T11:22:49;7.56;;;7.55;;
71172;SDS011;58875;51.996;4.504;2024-02-26T11:25:14;7.85;;;7.80;;
71172;SDS011;58875;51.996;4.504;2024-02-26T11:27:48;7.60;;;7.59;;
71172;SDS011;58875;51.996;4.504;2024-02-26T11:30:18;8.10;;;8.05;;
71172;SDS011;58875;51.996;4.504;2024-02-26T11:32:46;7.84;;;7.84;;
71172;SDS011;58875;51.996;4.504;2024-02-26T11:35:12;8.12;;;8.12;;
71172;SDS011;58875;51.996;4.504;2024-02-26T11:37:50;8.25;;;8.22;;
71172;SDS011;58875;51.996;4.504;2024-02-26T11:40:17;8.24;;;8.20;;
71172;SDS011;58875;51.996;4.504;2024-02-26T11:42:44;7.92;;;7.89;;
71172;SDS011;58875;51.996;4.504;2024-02-26T11:48:24;7.63;;;7.58;;
71172;SDS011;58875;51.996;4.504;2024-02-26T11:50:54;7.41;;;7.35;;
71172;SDS011;58875;51.996;4.504;2024-02-26T11:53:21;7.29;;;7.28;;
71172;SDS011;58875;51.996;4.504;2024-02-26T11:58:59;7.04;;;7.04;;
71172;SDS011;58875;51.996;4.504;2024-02-26T12:04:01;6.60;;;6.60;;
71172;SDS011;58875;51.996;4.504;2024-02-26T12:06:29;6.76;;;6.76;;
71172;SDS011;58875;51.996;4.504;2024-02-26T12:08:55;6.64;;;6.64;;
71172;SDS011;58875;51.996;4.504;2024-02-26T12:11:21;6.69;;;6.69;;
71172;SDS011;58875;51.996;4.504;2024-02-26T12:13:47;6.55;;;6.55;;
71172;SDS011;58875;51.996;4.504;2024-02-26T12:19:03;6.29;;;6.29;;
71172;SDS011;58875;51.996;4.504;2024-02-26T12:21:31;6.22;;;6.22;;
71172;SDS011;58875;51.996;4.504;2024-02-26T12:24:09;5.78;;;5.78;;
71172;SDS011;58875;51.996;4.504;2024-02-26T12:26:37;5.80;;;5.80;;
71172;SDS011;58875;51.996;4.504;2024-02-26T12:29:03;5.61;;;5.61;;
71172;SDS011;58875;51.996;4.504;2024-02-26T12:31:29;5.55;;;5.55;;
71172;SDS011;58875;51.996;4.504;2024-02-26T12:33:56;5.41;;;5.41;;
71172;SDS011;58875;51.996;4.504;2024-02-26T12:36:22;5.35;;;5.35;;
71172;SDS011;58875;51.996;4.504;2024-02-26T12:38:51;5.23;;;5.23;;
71172;SDS011;58875;51.996;4.504;2024-02-26T12:41:17;5.42;;;5.42;;
71172;SDS011;58875;51.996;4.504;2024-02-26T12:43:42;5.35;;;5.35;;
71172;SDS011;58875;51.996;4.504;2024-02-26T12:46:08;5.04;;;5.04;;
71172;SDS011;58875;51.996;4.504;2024-02-26T12:48:33;5.03;;;5.03;;
71172;SDS011;58875;51.996;4.504;2024-02-26T12:50:59;5.29;;;5.29;;
71172;SDS011;58875;51.996;4.504;2024-02-26T12:53:26;4.84;;;4.84;;
71172;SDS011;58875;51.996;4.504;2024-02-26T12:55:53;4.98;;;4.98;;
71172;SDS011;58875;51.996;4.504;2024-02-26T12:58:19;4.64;;;4.64;;
71172;SDS011;58875;51.996;4.504;2024-02-26T13:00:52;4.94;;;4.94;;
71172;SDS011;58875;51.996;4.504;2024-02-26T13:03:20;4.88;;;4.88;;
71172;SDS011;58875;51.996;4.504;2024-02-26T13:05:48;4.60;;;4.60;;
71172;SDS011;58875;51.996;4.504;2024-02-26T13:08:17;4.89;;;4.89;;
71172;SDS011;58875;51.996;4.504;2024-02-26T13:10:45;4.54;;;4.53;;
71172;SDS011;58875;51.996;4.504;2024-02-26T13:13:15;4.60;;;4.60;;
71172;SDS011;58875;51.996;4.504;2024-02-26T13:15:42;4.71;;;4.71;;
71172;SDS011;58875;51.996;4.504;2024-02-26T13:18:12;4.75;;;4.75;;
71172;SDS011;58875;51.996;4.504;2024-02-26T13:20:42;4.62;;;4.62;;
71172;SDS011;58875;51.996;4.504;2024-02-26T13:23:10;4.32;;;4.32;;
71172;SDS011;58875;51.996;4.504;2024-02-26T13:25:37;4.47;;;4.46;;
71172;SDS011;58875;51.996;4.504;2024-02-26T13:28:07;4.67;;;4.65;;
71172;SDS011;58875;51.996;4.504;2024-02-26T13:30:34;4.73;;;4.73;;
71172;SDS011;58875;51.996;4.504;2024-02-26T13:33:10;4.43;;;4.43;;
71172;SDS011;58875;51.996;4.504;2024-02-26T13:35:37;4.30;;;4.30;;
71172;SDS011;58875;51.996;4.504;2024-02-26T13:38:04;4.54;;;4.54;;
71172;SDS011;58875;51.996;4.504;2024-02-26T13:40:31;4.50;;;4.50;;
71172;SDS011;58875;51.996;4.504;2024-02-26T13:42:57;4.36;;;4.36;;
71172;SDS011;58875;51.996;4.504;2024-02-26T13:45:26;4.27;;;4.27;;
71172;SDS011;58875;51.996;4.504;2024-02-26T13:47:51;4.52;;;4.52;;
71172;SDS011;58875;51.996;4.504;2024-02-26T13:50:17;4.55;;;4.53;;
71172;SDS011;58875;51.996;4.504;2024-02-26T13:52:48;4.23;;;4.20;;
71172;SDS011;58875;51.996;4.504;2024-02-26T13:55:18;4.59;;;4.52;;
71172;SDS011;58875;51.996;4.504;2024-02-26T13:57:44;4.50;;;4.48;;
71172;SDS011;58875;51.996;4.504;2024-02-26T14:00:10;4.14;;;4.14;;
71172;SDS011;58875;51.996;4.504;2024-02-26T14:02:37;4.22;;;4.22;;
71172;SDS011;58875;51.996;4.504;2024-02-26T14:05:03;4.30;;;4.30;;
71172;SDS011;58875;51.996;4.504;2024-02-26T14:07:29;4.01;;;4.01;;
71172;SDS011;58875;51.996;4.504;2024-02-26T14:09:57;4.22;;;4.22;;
71172;SDS011;58875;51.996;4.504;2024-02-26T14:12:23;4.05;;;4.05;;
71172;SDS011;58875;51.996;4.504;2024-02-26T14:14:49;4.15;;;4.15;;
71172;SDS011;58875;51.996;4.504;2024-02-26T14:17:15;3.90;;;3.89;;
71172;SDS011;58875;51.996;4.504;2024-02-26T14:19:41;3.88;;;3.87;;
71172;SDS011;58875;51.996;4.504;2024-02-26T14:22:12;3.91;;;3.91;;
71172;SDS011;58875;51.996;4.504;2024-02-26T14:24:38;3.92;;;3.91;;
71172;SDS011;58875;51.996;4.504;2024-02-26T14:27:04;3.48;;;3.48;;
71172;SDS011;58875;51.996;4.504;2024-02-26T14:29:33;3.84;;;3.84;;
71172;SDS011;58875;51.996;4.504;2024-02-26T14:31:58;3.74;;;3.74;;
71172;SDS011;58875;51.996;4.504;2024-02-26T14:34:24;3.81;;;3.81;;
71172;SDS011;58875;51.996;4.504;2024-02-26T14:36:49;4.00;;;4.00;;
71172;SDS011;58875;51.996;4.504;2024-02-26T14:39:15;3.73;;;3.73;;
71172;SDS011;58875;51.996;4.504;2024-02-26T14:41:40;3.93;;;3.92;;
71172;SDS011;58875;51.996;4.504;2024-02-26T14:44:06;3.93;;;3.93;;
71172;SDS011;58875;51.996;4.504;2024-02-26T14:46:31;4.28;;;4.28;;